sensor_id;sensor_type;location;lat;lon;timestamp;P1;durP1;ratioP1;P2;durP2;ratioP2
9801;SDS011;4940;50.900;4.672;2023-07-31T00:00:44;68.05;;;61.63;;
9801;SDS011;4940;50.900;4.672;2023-07-31T00:03:11;61.63;;;55.85;;
9801;SDS011;4940;50.900;4.672;2023-07-31T00:05:40;59.30;;;53.70;;
9801;SDS011;4940;50.900;4.672;2023-07-31T00:08:07;61.42;;;55.95;;
9801;SDS011;4940;50.900;4.672;2023-07-31T00:10:35;61.80;;;56.42;;
9801;SDS011;4940;50.900;4.672;2023-07-31T00:13:02;53.55;;;48.42;;
9801;SDS011;4940;50.900;4.672;2023-07-31T00:15:29;69.32;;;63.42;;
9801;SDS011;4940;50.900;4.672;2023-07-31T00:17:57;59.75;;;54.22;;
9801;SDS011;4940;50.900;4.672;2023-07-31T00:20:24;64.22;;;58.60;;
9801;SDS011;4940;50.900;4.672;2023-07-31T00:22:53;62.28;;;56.30;;
9801;SDS011;4940;50.900;4.672;2023-07-31T00:25:21;61.72;;;56.03;;
9801;SDS011;4940;50.900;4.672;2023-07-31T00:27:48;69.03;;;63.10;;
9801;SDS011;4940;50.900;4.672;2023-07-31T00:30:16;58.88;;;53.55;;
9801;SDS011;4940;50.900;4.672;2023-07-31T00:32:43;59.55;;;53.95;;
9801;SDS011;4940;50.900;4.672;2023-07-31T00:35:11;62.65;;;56.85;;
9801;SDS011;4940;50.900;4.672;2023-07-31T00:37:38;70.85;;;64.40;;
9801;SDS011;4940;50.900;4.672;2023-07-31T00:40:07;66.78;;;60.55;;
9801;SDS011;4940;50.900;4.672;2023-07-31T00:42:35;78.45;;;72.32;;
9801;SDS011;4940;50.900;4.672;2023-07-31T00:45:02;98.20;;;91.07;;
9801;SDS011;4940;50.900;4.672;2023-07-31T00:47:30;81.10;;;74.50;;
9801;SDS011;4940;50.900;4.672;2023-07-31T00:49:57;87.18;;;80.28;;
9801;SDS011;4940;50.900;4.672;2023-07-31T00:52:25;80.47;;;74.22;;
9801;SDS011;4940;50.900;4.672;2023-07-31T00:54:52;94.95;;;87.80;;
9801;SDS011;4940;50.900;4.672;2023-07-31T00:57:20;87.00;;;80.35;;
9801;SDS011;4940;50.900;4.672;2023-07-31T00:59:48;93.60;;;86.72;;
9801;SDS011;4940;50.900;4.672;2023-07-31T01:02:15;97.93;;;91.10;;
9801;SDS011;4940;50.900;4.672;2023-07-31T01:04:43;87.95;;;81.30;;
9801;SDS011;4940;50.900;4.672;2023-07-31T01:07:11;89.07;;;82.10;;
9801;SDS011;4940;50.900;4.672;2023-07-31T01:09:42;70.22;;;64.38;;
9801;SDS011;4940;50.900;4.672;2023-07-31T01:12:13;87.07;;;80.35;;
9801;SDS011;4940;50.900;4.672;2023-07-31T01:14:51;87.28;;;80.60;;
9801;SDS011;4940;50.900;4.672;2023-07-31T01:17:28;91.03;;;84.30;;
9801;SDS011;4940;50.900;4.672;2023-07-31T01:19:55;85.93;;;79.32;;
9801;SDS011;4940;50.900;4.672;2023-07-31T01:22:28;76.60;;;70.35;;
9801;SDS011;4940;50.900;4.672;2023-07-31T01:25:07;86.78;;;79.97;;
9801;SDS011;4940;50.900;4.672;2023-07-31T01:27:50;83.78;;;77.35;;
9801;SDS011;4940;50.900;4.672;2023-07-31T01:30:29;85.28;;;78.72;;
9801;SDS011;4940;50.900;4.672;2023-07-31T01:33:00;83.65;;;77.50;;
9801;SDS011;4940;50.900;4.672;2023-07-31T01:35:31;91.03;;;84.28;;
9801;SDS011;4940;50.900;4.672;2023-07-31T01:37:59;88.15;;;81.10;;
9801;SDS011;4940;50.900;4.672;2023-07-31T01:40:27;70.00;;;64.40;;
9801;SDS011;4940;50.900;4.672;2023-07-31T01:42:55;89.60;;;82.68;;
9801;SDS011;4940;50.900;4.672;2023-07-31T01:45:23;88.15;;;81.68;;
9801;SDS011;4940;50.900;4.672;2023-07-31T01:47:50;89.40;;;82.63;;
9801;SDS011;4940;50.900;4.672;2023-07-31T01:50:17;99.18;;;92.40;;
9801;SDS011;4940;50.900;4.672;2023-07-31T01:52:45;69.72;;;63.53;;
9801;SDS011;4940;50.900;4.672;2023-07-31T01:55:12;82.43;;;76.20;;
9801;SDS011;4940;50.900;4.672;2023-07-31T01:57:39;89.97;;;83.43;;
9801;SDS011;4940;50.900;4.672;2023-07-31T02:00:08;79.50;;;73.03;;
9801;SDS011;4940;50.900;4.672;2023-07-31T02:02:36;85.30;;;78.95;;
9801;SDS011;4940;50.900;4.672;2023-07-31T02:05:03;83.20;;;77.13;;
9801;SDS011;4940;50.900;4.672;2023-07-31T02:07:31;85.10;;;78.97;;
9801;SDS011;4940;50.900;4.672;2023-07-31T02:09:58;81.85;;;75.43;;
9801;SDS011;4940;50.900;4.672;2023-07-31T02:12:25;81.38;;;75.05;;
9801;SDS011;4940;50.900;4.672;2023-07-31T02:14:55;86.18;;;79.47;;
9801;SDS011;4940;50.900;4.672;2023-07-31T02:17:24;84.18;;;78.03;;
9801;SDS011;4940;50.900;4.672;2023-07-31T02:19:52;71.53;;;65.82;;
9801;SDS011;4940;50.900;4.672;2023-07-31T02:22:20;69.00;;;63.47;;
9801;SDS011;4940;50.900;4.672;2023-07-31T02:24:47;81.25;;;74.95;;
9801;SDS011;4940;50.900;4.672;2023-07-31T02:27:15;70.70;;;64.95;;
9801;SDS011;4940;50.900;4.672;2023-07-31T02:29:42;77.85;;;71.90;;
9801;SDS011;4940;50.900;4.672;2023-07-31T02:32:09;83.47;;;77.18;;
9801;SDS011;4940;50.900;4.672;2023-07-31T02:34:38;61.72;;;56.83;;
9801;SDS011;4940;50.900;4.672;2023-07-31T02:37:05;65.95;;;60.53;;
9801;SDS011;4940;50.900;4.672;2023-07-31T02:39:32;60.83;;;56.08;;
9801;SDS011;4940;50.900;4.672;2023-07-31T02:42:00;55.38;;;50.78;;
9801;SDS011;4940;50.900;4.672;2023-07-31T02:44:27;66.25;;;60.63;;
9801;SDS011;4940;50.900;4.672;2023-07-31T02:46:55;66.88;;;61.65;;
9801;SDS011;4940;50.900;4.672;2023-07-31T02:49:22;66.78;;;61.30;;
9801;SDS011;4940;50.900;4.672;2023-07-31T02:51:51;59.40;;;54.42;;
9801;SDS011;4940;50.900;4.672;2023-07-31T02:54:18;54.00;;;49.40;;
9801;SDS011;4940;50.900;4.672;2023-07-31T02:56:46;66.22;;;61.13;;
9801;SDS011;4940;50.900;4.672;2023-07-31T02:59:14;52.95;;;48.08;;
9801;SDS011;4940;50.900;4.672;2023-07-31T03:01:41;67.70;;;62.30;;
9801;SDS011;4940;50.900;4.672;2023-07-31T03:04:09;66.47;;;61.17;;
9801;SDS011;4940;50.900;4.672;2023-07-31T03:06:36;59.72;;;54.63;;
9801;SDS011;4940;50.900;4.672;2023-07-31T03:09:05;51.42;;;46.28;;
9801;SDS011;4940;50.900;4.672;2023-07-31T03:11:32;63.13;;;58.33;;
9801;SDS011;4940;50.900;4.672;2023-07-31T03:13:59;55.83;;;51.30;;
9801;SDS011;4940;50.900;4.672;2023-07-31T03:16:27;51.30;;;46.83;;
9801;SDS011;4940;50.900;4.672;2023-07-31T03:18:54;56.35;;;51.58;;
9801;SDS011;4940;50.900;4.672;2023-07-31T03:21:23;62.83;;;57.90;;
9801;SDS011;4940;50.900;4.672;2023-07-31T03:23:50;57.38;;;52.67;;
9801;SDS011;4940;50.900;4.672;2023-07-31T03:26:19;59.72;;;54.65;;
9801;SDS011;4940;50.900;4.672;2023-07-31T03:28:46;52.55;;;48.22;;
9801;SDS011;4940;50.900;4.672;2023-07-31T03:31:14;54.05;;;49.28;;
9801;SDS011;4940;50.900;4.672;2023-07-31T03:33:42;65.63;;;60.20;;
9801;SDS011;4940;50.900;4.672;2023-07-31T03:36:09;67.97;;;62.35;;
9801;SDS011;4940;50.900;4.672;2023-07-31T03:38:37;68.03;;;62.92;;
9801;SDS011;4940;50.900;4.672;2023-07-31T03:41:04;54.85;;;49.95;;
9801;SDS011;4940;50.900;4.672;2023-07-31T03:43:33;55.20;;;50.60;;
9801;SDS011;4940;50.900;4.672;2023-07-31T03:46:01;52.42;;;47.90;;
9801;SDS011;4940;50.900;4.672;2023-07-31T03:48:28;53.38;;;48.88;;
9801;SDS011;4940;50.900;4.672;2023-07-31T03:50:55;59.28;;;54.58;;
9801;SDS011;4940;50.900;4.672;2023-07-31T03:53:23;59.25;;;54.35;;
9801;SDS011;4940;50.900;4.672;2023-07-31T03:55:50;61.47;;;56.72;;
9801;SDS011;4940;50.900;4.672;2023-07-31T03:58:17;44.83;;;41.08;;
9801;SDS011;4940;50.900;4.672;2023-07-31T04:00:46;54.95;;;50.20;;
9801;SDS011;4940;50.900;4.672;2023-07-31T04:03:13;63.53;;;58.13;;
9801;SDS011;4940;50.900;4.672;2023-07-31T04:05:41;55.80;;;50.72;;
9801;SDS011;4940;50.900;4.672;2023-07-31T04:08:08;54.78;;;49.97;;
9801;SDS011;4940;50.900;4.672;2023-07-31T04:10:36;64.55;;;59.25;;
9801;SDS011;4940;50.900;4.672;2023-07-31T04:13:03;88.93;;;82.53;;
9801;SDS011;4940;50.900;4.672;2023-07-31T04:15:30;70.80;;;65.07;;
9801;SDS011;4940;50.900;4.672;2023-07-31T04:17:59;71.35;;;65.38;;
9801;SDS011;4940;50.900;4.672;2023-07-31T04:20:26;78.65;;;72.35;;
9801;SDS011;4940;50.900;4.672;2023-07-31T04:22:54;92.72;;;86.03;;
9801;SDS011;4940;50.900;4.672;2023-07-31T04:25:21;85.55;;;79.35;;
9801;SDS011;4940;50.900;4.672;2023-07-31T04:27:49;85.25;;;79.05;;
9801;SDS011;4940;50.900;4.672;2023-07-31T04:30:16;89.45;;;82.97;;
9801;SDS011;4940;50.900;4.672;2023-07-31T04:32:43;73.30;;;67.70;;
9801;SDS011;4940;50.900;4.672;2023-07-31T04:35:12;85.97;;;79.72;;
9801;SDS011;4940;50.900;4.672;2023-07-31T04:37:39;53.45;;;48.95;;
9801;SDS011;4940;50.900;4.672;2023-07-31T04:40:07;55.97;;;50.78;;
9801;SDS011;4940;50.900;4.672;2023-07-31T04:42:34;58.08;;;52.47;;
9801;SDS011;4940;50.900;4.672;2023-07-31T04:45:02;48.15;;;43.67;;
9801;SDS011;4940;50.900;4.672;2023-07-31T04:47:30;43.13;;;39.22;;
9801;SDS011;4940;50.900;4.672;2023-07-31T04:49:57;44.80;;;40.58;;
9801;SDS011;4940;50.900;4.672;2023-07-31T04:52:26;44.25;;;40.33;;
9801;SDS011;4940;50.900;4.672;2023-07-31T04:54:53;41.03;;;36.78;;
9801;SDS011;4940;50.900;4.672;2023-07-31T04:57:21;43.60;;;39.40;;
9801;SDS011;4940;50.900;4.672;2023-07-31T04:59:48;43.78;;;39.67;;
9801;SDS011;4940;50.900;4.672;2023-07-31T05:02:15;43.22;;;39.10;;
9801;SDS011;4940;50.900;4.672;2023-07-31T05:04:43;44.17;;;40.00;;
9801;SDS011;4940;50.900;4.672;2023-07-31T05:07:10;42.20;;;38.05;;
9801;SDS011;4940;50.900;4.672;2023-07-31T05:09:39;39.75;;;35.78;;
9801;SDS011;4940;50.900;4.672;2023-07-31T05:12:06;40.92;;;36.92;;
9801;SDS011;4940;50.900;4.672;2023-07-31T05:14:34;43.08;;;38.88;;
9801;SDS011;4940;50.900;4.672;2023-07-31T05:17:01;42.78;;;38.65;;
9801;SDS011;4940;50.900;4.672;2023-07-31T05:19:29;47.95;;;43.25;;
9801;SDS011;4940;50.900;4.672;2023-07-31T05:21:56;42.10;;;37.83;;
9801;SDS011;4940;50.900;4.672;2023-07-31T05:24:24;41.75;;;37.60;;
9801;SDS011;4940;50.900;4.672;2023-07-31T05:26:52;39.83;;;35.83;;
9801;SDS011;4940;50.900;4.672;2023-07-31T05:29:20;43.25;;;39.08;;
9801;SDS011;4940;50.900;4.672;2023-07-31T05:31:47;41.72;;;37.42;;
9801;SDS011;4940;50.900;4.672;2023-07-31T05:34:14;43.42;;;39.03;;
9801;SDS011;4940;50.900;4.672;2023-07-31T05:36:41;44.83;;;40.20;;
9801;SDS011;4940;50.900;4.672;2023-07-31T05:39:09;41.25;;;37.13;;
9801;SDS011;4940;50.900;4.672;2023-07-31T05:41:36;43.13;;;38.75;;
9801;SDS011;4940;50.900;4.672;2023-07-31T05:44:05;44.08;;;39.78;;
9801;SDS011;4940;50.900;4.672;2023-07-31T05:46:32;43.42;;;39.03;;
9801;SDS011;4940;50.900;4.672;2023-07-31T05:49:00;42.72;;;38.17;;
9801;SDS011;4940;50.900;4.672;2023-07-31T05:51:28;45.42;;;40.85;;
9801;SDS011;4940;50.900;4.672;2023-07-31T05:53:55;43.72;;;39.38;;
9801;SDS011;4940;50.900;4.672;2023-07-31T05:56:22;43.47;;;39.10;;
9801;SDS011;4940;50.900;4.672;2023-07-31T05:58:50;47.03;;;42.47;;
9801;SDS011;4940;50.900;4.672;2023-07-31T06:01:18;47.28;;;42.45;;
9801;SDS011;4940;50.900;4.672;2023-07-31T06:03:46;43.22;;;38.72;;
9801;SDS011;4940;50.900;4.672;2023-07-31T06:06:14;46.85;;;42.25;;
9801;SDS011;4940;50.900;4.672;2023-07-31T06:08:41;44.10;;;39.70;;
9801;SDS011;4940;50.900;4.672;2023-07-31T06:11:08;42.85;;;38.35;;
9801;SDS011;4940;50.900;4.672;2023-07-31T06:13:36;42.35;;;37.90;;
9801;SDS011;4940;50.900;4.672;2023-07-31T06:16:03;42.45;;;38.22;;
9801;SDS011;4940;50.900;4.672;2023-07-31T06:18:33;43.28;;;39.17;;
9801;SDS011;4940;50.900;4.672;2023-07-31T06:21:00;43.90;;;39.17;;
9801;SDS011;4940;50.900;4.672;2023-07-31T06:23:27;46.28;;;41.67;;
9801;SDS011;4940;50.900;4.672;2023-07-31T06:25:55;41.53;;;37.33;;
9801;SDS011;4940;50.900;4.672;2023-07-31T06:28:23;43.67;;;39.40;;
9801;SDS011;4940;50.900;4.672;2023-07-31T06:30:55;42.60;;;38.15;;
9801;SDS011;4940;50.900;4.672;2023-07-31T06:33:22;43.83;;;39.17;;
9801;SDS011;4940;50.900;4.672;2023-07-31T06:35:51;44.22;;;39.80;;
9801;SDS011;4940;50.900;4.672;2023-07-31T06:38:19;42.65;;;38.28;;
9801;SDS011;4940;50.900;4.672;2023-07-31T06:40:48;42.80;;;38.60;;
9801;SDS011;4940;50.900;4.672;2023-07-31T06:43:15;43.92;;;39.30;;
9801;SDS011;4940;50.900;4.672;2023-07-31T06:45:43;42.50;;;38.15;;
9801;SDS011;4940;50.900;4.672;2023-07-31T06:48:11;43.78;;;39.13;;
9801;SDS011;4940;50.900;4.672;2023-07-31T06:50:38;43.03;;;38.83;;
9801;SDS011;4940;50.900;4.672;2023-07-31T06:53:06;44.97;;;40.15;;
9801;SDS011;4940;50.900;4.672;2023-07-31T06:55:34;43.72;;;39.33;;
9801;SDS011;4940;50.900;4.672;2023-07-31T06:58:01;44.80;;;40.20;;
9801;SDS011;4940;50.900;4.672;2023-07-31T07:00:28;45.05;;;40.53;;
9801;SDS011;4940;50.900;4.672;2023-07-31T07:02:56;44.80;;;40.20;;
9801;SDS011;4940;50.900;4.672;2023-07-31T07:05:23;42.92;;;38.50;;
9801;SDS011;4940;50.900;4.672;2023-07-31T07:07:51;45.65;;;41.08;;
9801;SDS011;4940;50.900;4.672;2023-07-31T07:10:19;46.60;;;41.83;;
9801;SDS011;4940;50.900;4.672;2023-07-31T07:12:47;43.40;;;38.88;;
9801;SDS011;4940;50.900;4.672;2023-07-31T07:15:15;44.72;;;40.22;;
9801;SDS011;4940;50.900;4.672;2023-07-31T07:17:42;48.25;;;43.55;;
9801;SDS011;4940;50.900;4.672;2023-07-31T07:20:09;45.22;;;40.92;;
9801;SDS011;4940;50.900;4.672;2023-07-31T07:22:37;42.53;;;38.00;;
9801;SDS011;4940;50.900;4.672;2023-07-31T07:25:05;42.70;;;38.10;;
9801;SDS011;4940;50.900;4.672;2023-07-31T07:27:34;41.55;;;37.45;;
9801;SDS011;4940;50.900;4.672;2023-07-31T07:30:02;43.88;;;39.42;;
9801;SDS011;4940;50.900;4.672;2023-07-31T07:32:29;44.65;;;40.35;;
9801;SDS011;4940;50.900;4.672;2023-07-31T07:34:57;42.05;;;38.05;;
9801;SDS011;4940;50.900;4.672;2023-07-31T07:37:24;45.83;;;41.47;;
9801;SDS011;4940;50.900;4.672;2023-07-31T07:39:51;40.38;;;36.47;;
9801;SDS011;4940;50.900;4.672;2023-07-31T07:42:19;39.88;;;36.05;;
9801;SDS011;4940;50.900;4.672;2023-07-31T07:44:48;36.03;;;32.60;;
9801;SDS011;4940;50.900;4.672;2023-07-31T07:47:17;37.78;;;34.08;;
9801;SDS011;4940;50.900;4.672;2023-07-31T07:49:48;37.75;;;34.15;;
9801;SDS011;4940;50.900;4.672;2023-07-31T07:52:16;38.35;;;34.70;;
9801;SDS011;4940;50.900;4.672;2023-07-31T07:54:43;38.63;;;34.95;;
9801;SDS011;4940;50.900;4.672;2023-07-31T07:57:10;40.33;;;36.65;;
9801;SDS011;4940;50.900;4.672;2023-07-31T07:59:38;43.03;;;38.97;;
9801;SDS011;4940;50.900;4.672;2023-07-31T08:02:06;37.05;;;33.65;;
9801;SDS011;4940;50.900;4.672;2023-07-31T08:04:33;37.03;;;33.53;;
9801;SDS011;4940;50.900;4.672;2023-07-31T08:07:01;38.10;;;34.45;;
9801;SDS011;4940;50.900;4.672;2023-07-31T08:09:28;36.28;;;33.10;;
9801;SDS011;4940;50.900;4.672;2023-07-31T08:11:55;37.38;;;33.97;;
9801;SDS011;4940;50.900;4.672;2023-07-31T08:14:27;36.45;;;33.00;;
9801;SDS011;4940;50.900;4.672;2023-07-31T08:16:54;36.13;;;32.80;;
9801;SDS011;4940;50.900;4.672;2023-07-31T08:19:23;35.58;;;32.53;;
9801;SDS011;4940;50.900;4.672;2023-07-31T08:21:50;39.30;;;36.20;;
9801;SDS011;4940;50.900;4.672;2023-07-31T08:24:18;35.17;;;32.25;;
9801;SDS011;4940;50.900;4.672;2023-07-31T08:26:45;35.42;;;32.40;;
9801;SDS011;4940;50.900;4.672;2023-07-31T08:29:13;33.03;;;30.45;;
9801;SDS011;4940;50.900;4.672;2023-07-31T08:31:41;31.83;;;29.52;;
9801;SDS011;4940;50.900;4.672;2023-07-31T08:34:08;30.38;;;28.35;;
9801;SDS011;4940;50.900;4.672;2023-07-31T08:36:36;31.58;;;29.45;;
9801;SDS011;4940;50.900;4.672;2023-07-31T08:39:04;31.42;;;29.25;;
9801;SDS011;4940;50.900;4.672;2023-07-31T08:41:31;30.42;;;28.42;;
9801;SDS011;4940;50.900;4.672;2023-07-31T08:44:03;30.02;;;28.02;;
9801;SDS011;4940;50.900;4.672;2023-07-31T08:46:31;29.25;;;27.33;;
9801;SDS011;4940;50.900;4.672;2023-07-31T08:48:59;30.25;;;28.17;;
9801;SDS011;4940;50.900;4.672;2023-07-31T08:51:30;28.60;;;26.95;;
9801;SDS011;4940;50.900;4.672;2023-07-31T08:53:59;28.08;;;26.38;;
9801;SDS011;4940;50.900;4.672;2023-07-31T08:56:26;28.00;;;26.40;;
9801;SDS011;4940;50.900;4.672;2023-07-31T08:58:55;27.95;;;26.45;;
9801;SDS011;4940;50.900;4.672;2023-07-31T09:01:23;27.70;;;26.00;;
9801;SDS011;4940;50.900;4.672;2023-07-31T09:03:51;28.00;;;26.30;;
9801;SDS011;4940;50.900;4.672;2023-07-31T09:06:20;27.98;;;26.23;;
9801;SDS011;4940;50.900;4.672;2023-07-31T09:08:50;27.65;;;26.05;;
9801;SDS011;4940;50.900;4.672;2023-07-31T09:11:18;26.92;;;25.23;;
9801;SDS011;4940;50.900;4.672;2023-07-31T09:13:47;28.38;;;26.77;;
9801;SDS011;4940;50.900;4.672;2023-07-31T09:16:16;27.17;;;25.63;;
9801;SDS011;4940;50.900;4.672;2023-07-31T09:18:52;26.17;;;24.63;;
9801;SDS011;4940;50.900;4.672;2023-07-31T09:21:21;27.33;;;25.73;;
9801;SDS011;4940;50.900;4.672;2023-07-31T09:23:49;28.25;;;26.55;;
9801;SDS011;4940;50.900;4.672;2023-07-31T09:26:32;27.85;;;26.15;;
9801;SDS011;4940;50.900;4.672;2023-07-31T09:29:00;28.20;;;26.42;;
9801;SDS011;4940;50.900;4.672;2023-07-31T09:31:33;28.15;;;26.30;;
9801;SDS011;4940;50.900;4.672;2023-07-31T09:34:05;26.25;;;24.52;;
9801;SDS011;4940;50.900;4.672;2023-07-31T09:36:35;24.65;;;23.10;;
9801;SDS011;4940;50.900;4.672;2023-07-31T09:39:08;25.23;;;23.83;;
9801;SDS011;4940;50.900;4.672;2023-07-31T09:41:37;24.80;;;23.30;;
9801;SDS011;4940;50.900;4.672;2023-07-31T09:44:06;28.35;;;26.65;;
9801;SDS011;4940;50.900;4.672;2023-07-31T09:46:34;24.73;;;23.33;;
9801;SDS011;4940;50.900;4.672;2023-07-31T09:49:03;15.73;;;14.82;;
9801;SDS011;4940;50.900;4.672;2023-07-31T09:51:32;8.15;;;7.55;;
9801;SDS011;4940;50.900;4.672;2023-07-31T09:54:03;5.95;;;5.32;;
9801;SDS011;4940;50.900;4.672;2023-07-31T09:56:37;4.00;;;3.70;;
9801;SDS011;4940;50.900;4.672;2023-07-31T09:59:10;5.53;;;5.05;;
9801;SDS011;4940;50.900;4.672;2023-07-31T10:01:38;6.60;;;6.03;;
9801;SDS011;4940;50.900;4.672;2023-07-31T10:04:07;5.68;;;4.82;;
9801;SDS011;4940;50.900;4.672;2023-07-31T10:06:35;5.47;;;4.95;;
9801;SDS011;4940;50.900;4.672;2023-07-31T10:09:04;6.05;;;5.40;;
9801;SDS011;4940;50.900;4.672;2023-07-31T10:11:34;8.77;;;7.95;;
9801;SDS011;4940;50.900;4.672;2023-07-31T10:14:09;9.07;;;8.38;;
9801;SDS011;4940;50.900;4.672;2023-07-31T10:16:38;11.35;;;10.45;;
9801;SDS011;4940;50.900;4.672;2023-07-31T10:19:06;13.57;;;12.73;;
9801;SDS011;4940;50.900;4.672;2023-07-31T10:21:35;15.05;;;14.05;;
9801;SDS011;4940;50.900;4.672;2023-07-31T10:24:54;18.20;;;17.02;;
9801;SDS011;4940;50.900;4.672;2023-07-31T10:27:23;19.33;;;18.13;;
9801;SDS011;4940;50.900;4.672;2023-07-31T10:29:50;21.13;;;19.85;;
9801;SDS011;4940;50.900;4.672;2023-07-31T10:32:19;25.45;;;23.85;;
9801;SDS011;4940;50.900;4.672;2023-07-31T10:34:48;24.73;;;23.05;;
9801;SDS011;4940;50.900;4.672;2023-07-31T10:37:20;20.90;;;19.70;;
9801;SDS011;4940;50.900;4.672;2023-07-31T10:39:55;14.10;;;13.10;;
9801;SDS011;4940;50.900;4.672;2023-07-31T10:42:29;10.57;;;9.68;;
9801;SDS011;4940;50.900;4.672;2023-07-31T10:44:57;9.77;;;8.98;;
9801;SDS011;4940;50.900;4.672;2023-07-31T10:47:25;8.02;;;7.32;;
9801;SDS011;4940;50.900;4.672;2023-07-31T10:49:53;9.18;;;6.50;;
9801;SDS011;4940;50.900;4.672;2023-07-31T10:52:38;8.05;;;7.30;;
9801;SDS011;4940;50.900;4.672;2023-07-31T10:55:15;7.65;;;6.78;;
9801;SDS011;4940;50.900;4.672;2023-07-31T10:57:50;9.48;;;8.77;;
9801;SDS011;4940;50.900;4.672;2023-07-31T11:00:18;11.95;;;11.02;;
9801;SDS011;4940;50.900;4.672;2023-07-31T11:02:55;10.93;;;9.98;;
9801;SDS011;4940;50.900;4.672;2023-07-31T11:08:28;8.32;;;7.53;;
9801;SDS011;4940;50.900;4.672;2023-07-31T11:11:06;8.82;;;7.97;;
9801;SDS011;4940;50.900;4.672;2023-07-31T11:13:40;9.20;;;8.50;;
9801;SDS011;4940;50.900;4.672;2023-07-31T11:16:09;8.20;;;7.60;;
9801;SDS011;4940;50.900;4.672;2023-07-31T11:18:38;7.20;;;6.38;;
9801;SDS011;4940;50.900;4.672;2023-07-31T11:21:06;7.05;;;6.30;;
9801;SDS011;4940;50.900;4.672;2023-07-31T11:23:36;5.20;;;4.60;;
9801;SDS011;4940;50.900;4.672;2023-07-31T11:26:04;7.47;;;4.15;;
9801;SDS011;4940;50.900;4.672;2023-07-31T11:28:32;7.18;;;4.75;;
9801;SDS011;4940;50.900;4.672;2023-07-31T11:31:02;8.23;;;4.57;;
9801;SDS011;4940;50.900;4.672;2023-07-31T11:33:29;5.90;;;4.10;;
9801;SDS011;4940;50.900;4.672;2023-07-31T11:35:57;4.38;;;3.60;;
9801;SDS011;4940;50.900;4.672;2023-07-31T11:38:25;6.65;;;3.55;;
9801;SDS011;4940;50.900;4.672;2023-07-31T11:40:53;5.18;;;3.10;;
9801;SDS011;4940;50.900;4.672;2023-07-31T11:43:20;5.13;;;3.30;;
9801;SDS011;4940;50.900;4.672;2023-07-31T11:45:50;6.47;;;3.42;;
9801;SDS011;4940;50.900;4.672;2023-07-31T11:48:23;5.07;;;3.30;;
9801;SDS011;4940;50.900;4.672;2023-07-31T11:50:52;4.93;;;3.30;;
9801;SDS011;4940;50.900;4.672;2023-07-31T11:53:21;6.45;;;4.80;;
9801;SDS011;4940;50.900;4.672;2023-07-31T11:55:54;7.72;;;3.70;;
9801;SDS011;4940;50.900;4.672;2023-07-31T11:58:22;4.03;;;3.63;;
9801;SDS011;4940;50.900;4.672;2023-07-31T12:00:49;4.55;;;3.70;;
9801;SDS011;4940;50.900;4.672;2023-07-31T12:03:18;5.65;;;4.05;;
9801;SDS011;4940;50.900;4.672;2023-07-31T12:05:48;6.15;;;4.68;;
9801;SDS011;4940;50.900;4.672;2023-07-31T12:08:15;6.22;;;4.20;;
9801;SDS011;4940;50.900;4.672;2023-07-31T12:10:42;6.80;;;4.57;;
9801;SDS011;4940;50.900;4.672;2023-07-31T12:13:10;5.82;;;4.60;;
9801;SDS011;4940;50.900;4.672;2023-07-31T12:15:40;4.75;;;4.25;;
9801;SDS011;4940;50.900;4.672;2023-07-31T12:18:09;6.97;;;4.40;;
9801;SDS011;4940;50.900;4.672;2023-07-31T12:20:40;6.97;;;4.03;;
9801;SDS011;4940;50.900;4.672;2023-07-31T12:23:20;4.40;;;3.90;;
9801;SDS011;4940;50.900;4.672;2023-07-31T12:25:59;6.53;;;4.10;;
9801;SDS011;4940;50.900;4.672;2023-07-31T12:28:27;4.38;;;3.33;;
9801;SDS011;4940;50.900;4.672;2023-07-31T12:30:56;7.15;;;3.67;;
9801;SDS011;4940;50.900;4.672;2023-07-31T12:33:29;4.88;;;4.05;;
9801;SDS011;4940;50.900;4.672;2023-07-31T12:35:57;6.60;;;4.80;;
9801;SDS011;4940;50.900;4.672;2023-07-31T12:38:28;7.43;;;4.60;;
9801;SDS011;4940;50.900;4.672;2023-07-31T12:40:55;7.40;;;4.97;;
9801;SDS011;4940;50.900;4.672;2023-07-31T12:43:22;9.30;;;5.18;;
9801;SDS011;4940;50.900;4.672;2023-07-31T12:45:49;8.25;;;4.80;;
9801;SDS011;4940;50.900;4.672;2023-07-31T12:48:17;5.63;;;4.55;;
9801;SDS011;4940;50.900;4.672;2023-07-31T12:50:44;5.95;;;3.90;;
9801;SDS011;4940;50.900;4.672;2023-07-31T12:53:12;5.05;;;3.90;;
9801;SDS011;4940;50.900;4.672;2023-07-31T12:55:40;6.75;;;4.40;;
9801;SDS011;4940;50.900;4.672;2023-07-31T12:58:08;5.90;;;4.40;;
9801;SDS011;4940;50.900;4.672;2023-07-31T13:00:35;9.73;;;5.10;;
9801;SDS011;4940;50.900;4.672;2023-07-31T13:03:03;6.03;;;4.93;;
9801;SDS011;4940;50.900;4.672;2023-07-31T13:05:30;7.13;;;4.15;;
9801;SDS011;4940;50.900;4.672;2023-07-31T13:07:57;6.13;;;3.88;;
9801;SDS011;4940;50.900;4.672;2023-07-31T13:10:25;5.60;;;3.95;;
9801;SDS011;4940;50.900;4.672;2023-07-31T13:12:55;4.95;;;4.18;;
9801;SDS011;4940;50.900;4.672;2023-07-31T13:15:22;4.82;;;4.05;;
9801;SDS011;4940;50.900;4.672;2023-07-31T13:17:50;5.45;;;4.53;;
9801;SDS011;4940;50.900;4.672;2023-07-31T13:20:17;5.88;;;4.50;;
9801;SDS011;4940;50.900;4.672;2023-07-31T13:22:45;6.75;;;6.05;;
9801;SDS011;4940;50.900;4.672;2023-07-31T13:25:12;7.35;;;6.75;;
9801;SDS011;4940;50.900;4.672;2023-07-31T13:27:39;8.80;;;7.80;;
9801;SDS011;4940;50.900;4.672;2023-07-31T13:30:08;9.70;;;8.90;;
9801;SDS011;4940;50.900;4.672;2023-07-31T13:32:36;11.30;;;10.30;;
9801;SDS011;4940;50.900;4.672;2023-07-31T13:35:04;11.80;;;11.00;;
9801;SDS011;4940;50.900;4.672;2023-07-31T13:37:31;12.80;;;11.98;;
9801;SDS011;4940;50.900;4.672;2023-07-31T13:39:59;15.45;;;14.30;;
9801;SDS011;4940;50.900;4.672;2023-07-31T13:42:26;20.98;;;19.77;;
9801;SDS011;4940;50.900;4.672;2023-07-31T13:44:54;27.40;;;25.80;;
9801;SDS011;4940;50.900;4.672;2023-07-31T13:47:24;30.00;;;28.00;;
9801;SDS011;4940;50.900;4.672;2023-07-31T13:49:51;32.63;;;30.50;;
9801;SDS011;4940;50.900;4.672;2023-07-31T13:52:18;32.70;;;30.50;;
9801;SDS011;4940;50.900;4.672;2023-07-31T13:54:46;34.13;;;31.45;;
9801;SDS011;4940;50.900;4.672;2023-07-31T13:57:13;34.05;;;31.45;;
9801;SDS011;4940;50.900;4.672;2023-07-31T13:59:40;36.35;;;33.35;;
9801;SDS011;4940;50.900;4.672;2023-07-31T14:02:08;36.60;;;33.47;;
9801;SDS011;4940;50.900;4.672;2023-07-31T14:04:36;37.10;;;33.80;;
9801;SDS011;4940;50.900;4.672;2023-07-31T14:07:04;38.05;;;34.85;;
9801;SDS011;4940;50.900;4.672;2023-07-31T14:09:31;40.65;;;36.92;;
9801;SDS011;4940;50.900;4.672;2023-07-31T14:11:58;39.33;;;35.90;;
9801;SDS011;4940;50.900;4.672;2023-07-31T14:14:26;39.15;;;35.72;;
9801;SDS011;4940;50.900;4.672;2023-07-31T14:16:53;37.80;;;34.50;;
9801;SDS011;4940;50.900;4.672;2023-07-31T14:19:20;38.00;;;34.50;;
9801;SDS011;4940;50.900;4.672;2023-07-31T14:21:50;39.05;;;35.58;;
9801;SDS011;4940;50.900;4.672;2023-07-31T14:24:17;39.70;;;35.95;;
9801;SDS011;4940;50.900;4.672;2023-07-31T14:26:45;40.33;;;36.60;;
9801;SDS011;4940;50.900;4.672;2023-07-31T14:29:12;38.20;;;34.80;;
9801;SDS011;4940;50.900;4.672;2023-07-31T14:31:39;37.92;;;34.22;;
9801;SDS011;4940;50.900;4.672;2023-07-31T14:34:07;38.85;;;35.15;;
9801;SDS011;4940;50.900;4.672;2023-07-31T14:36:34;39.25;;;35.67;;
9801;SDS011;4940;50.900;4.672;2023-07-31T14:39:03;39.60;;;35.58;;
9801;SDS011;4940;50.900;4.672;2023-07-31T14:41:30;38.28;;;34.65;;
9801;SDS011;4940;50.900;4.672;2023-07-31T14:43:57;38.70;;;35.13;;
9801;SDS011;4940;50.900;4.672;2023-07-31T14:46:25;38.45;;;34.85;;
9801;SDS011;4940;50.900;4.672;2023-07-31T14:48:52;41.50;;;37.83;;
9801;SDS011;4940;50.900;4.672;2023-07-31T14:51:19;37.17;;;33.63;;
9801;SDS011;4940;50.900;4.672;2023-07-31T14:53:47;37.00;;;33.50;;
9801;SDS011;4940;50.900;4.672;2023-07-31T14:56:16;38.03;;;34.63;;
9801;SDS011;4940;50.900;4.672;2023-07-31T14:58:43;39.15;;;35.65;;
9801;SDS011;4940;50.900;4.672;2023-07-31T15:01:11;39.08;;;35.28;;
9801;SDS011;4940;50.900;4.672;2023-07-31T15:03:38;39.70;;;36.17;;